createdAt,value
2017-09-14T00:01:54.871Z,96.10
2017-09-14T00:04:21.184Z,96.20
2017-09-14T00:06:47.491Z,95.90
2017-09-14T00:09:13.813Z,95.90
2017-09-14T00:11:40.089Z,96.00
2017-09-14T00:14:06.392Z,95.80
2017-09-14T00:16:32.704Z,95.90
2017-09-14T00:18:58.977Z,96.30
2017-09-14T00:21:25.300Z,96.00
2017-09-14T00:23:51.608Z,96.10
2017-09-14T00:26:17.962Z,96.00
2017-09-14T00:28:44.292Z,96.30
2017-09-14T00:31:10.619Z,96.20
2017-09-14T00:33:36.935Z,96.40
2017-09-14T00:36:03.232Z,96.20
2017-09-14T00:38:29.556Z,96.60
2017-09-14T00:40:55.862Z,96.60
2017-09-14T00:43:23.712Z,96.80
2017-09-14T00:45:50.047Z,96.70
2017-09-14T00:48:16.353Z,96.70
2017-09-14T00:50:42.669Z,96.80
2017-09-14T00:53:08.959Z,96.40
2017-09-14T00:55:36.050Z,95.80
2017-09-14T00:58:02.404Z,95.80
2017-09-14T01:00:28.756Z,95.90
2017-09-14T01:02:55.787Z,96.70
2017-09-14T01:05:22.112Z,96.40
2017-09-14T01:07:48.423Z,96.20
2017-09-14T01:10:14.712Z,95.80
2017-09-14T01:12:41.789Z,96.10
2017-09-14T01:15:08.104Z,96.00
2017-09-14T01:17:34.436Z,96.00
2017-09-14T01:20:00.762Z,96.20
2017-09-14T01:22:27.041Z,96.10
2017-09-14T01:24:53.344Z,96.40
2017-09-14T01:27:19.680Z,96.50
2017-09-14T01:29:46.030Z,96.50
2017-09-14T01:32:12.308Z,96.60
2017-09-14T01:34:39.373Z,96.80
2017-09-14T01:37:05.713Z,96.80
2017-09-14T01:39:32.115Z,96.90
2017-09-14T01:41:59.379Z,96.70
2017-09-14T01:44:25.661Z,96.70
2017-09-14T01:46:52.053Z,96.70
2017-09-14T01:49:18.316Z,96.60
2017-09-14T01:51:44.576Z,96.50
2017-09-14T01:54:11.755Z,96.70
2017-09-14T01:56:38.157Z,96.60
2017-09-14T01:59:05.280Z,96.40
2017-09-14T02:01:31.815Z,96.40
2017-09-14T02:03:58.160Z,96.30
2017-09-14T02:06:24.428Z,96.10
2017-09-14T02:08:50.700Z,96.00
2017-09-14T02:11:17.007Z,96.10
2017-09-14T02:13:43.344Z,96.30
2017-09-14T02:16:09.686Z,96.10
2017-09-14T02:18:35.988Z,96.20
2017-09-14T02:21:02.308Z,96.70
2017-09-14T02:23:28.636Z,97.00
2017-09-14T02:25:54.984Z,97.20
2017-09-14T02:28:21.332Z,96.90
2017-09-14T02:30:47.700Z,96.80
2017-09-14T02:33:14.721Z,96.00
2017-09-14T02:35:41.012Z,95.90
2017-09-14T02:38:07.368Z,95.80
2017-09-14T02:40:33.791Z,95.80
2017-09-14T02:43:00.096Z,96.20
2017-09-14T02:45:26.396Z,96.30
2017-09-14T02:47:53.449Z,96.30
2017-09-14T02:50:20.489Z,96.20
2017-09-14T02:52:47.532Z,96.00
2017-09-14T02:55:13.992Z,96.00
2017-09-14T02:57:40.328Z,95.30
2017-09-14T03:00:06.694Z,95.10
2017-09-14T03:02:32.991Z,95.40
2017-09-14T03:04:59.320Z,95.80
2017-09-14T03:07:25.868Z,95.30
2017-09-14T03:09:52.168Z,95.50
2017-09-14T03:12:19.201Z,95.40
2017-09-14T03:14:46.263Z,95.20
2017-09-14T03:17:13.308Z,95.20
2017-09-14T03:19:40.398Z,95.70
2017-09-14T03:22:06.736Z,95.70
2017-09-14T03:24:33.032Z,95.80
2017-09-14T03:26:59.337Z,96.10
2017-09-14T03:29:26.548Z,95.40
2017-09-14T03:31:52.847Z,95.20
2017-09-14T03:34:19.258Z,95.30
2017-09-14T03:36:46.306Z,95.20
2017-09-14T03:39:13.391Z,94.90
2017-09-14T03:41:39.769Z,94.90
2017-09-14T03:44:07.686Z,95.30
2017-09-14T03:46:34.012Z,95.20
2017-09-14T03:49:00.292Z,95.50
2017-09-14T03:51:27.359Z,95.70
2017-09-14T03:53:53.660Z,95.70
2017-09-14T03:56:20.017Z,95.10
2017-09-14T03:58:47.112Z,94.90
2017-09-14T04:01:13.428Z,94.80
2017-09-14T04:03:39.747Z,94.90
2017-09-14T04:06:06.863Z,94.40
2017-09-14T04:08:33.905Z,94.10
2017-09-14T04:11:00.215Z,94.10
2017-09-14T04:13:26.515Z,94.10
2017-09-14T04:15:52.804Z,94.30
2017-09-14T04:18:19.092Z,94.30
2017-09-14T04:20:45.429Z,93.90
2017-09-14T04:23:11.755Z,93.80
2017-09-14T04:25:38.142Z,93.50
2017-09-14T04:28:04.473Z,93.40
2017-09-14T04:30:30.769Z,93.10
2017-09-14T04:32:57.842Z,93.80
2017-09-14T04:35:24.872Z,93.70
2017-09-14T04:37:52.660Z,93.60
2017-09-14T04:40:19.890Z,93.80
2017-09-14T04:42:46.212Z,93.80
2017-09-14T04:45:12.531Z,94.00
2017-09-14T04:47:39.609Z,94.60
2017-09-14T04:50:06.672Z,94.40
2017-09-14T04:52:33.804Z,94.90
2017-09-14T04:55:00.859Z,95.40
2017-09-14T04:57:27.919Z,95.30
2017-09-14T04:59:54.292Z,95.30
2017-09-14T05:02:20.639Z,95.40
2017-09-14T05:04:47.161Z,95.20
2017-09-14T05:07:13.492Z,95.20
2017-09-14T05:09:39.820Z,95.60
2017-09-14T05:12:06.143Z,95.70
2017-09-14T05:14:32.477Z,95.80
2017-09-14T05:16:58.824Z,96.20
2017-09-14T05:19:25.110Z,95.80
2017-09-14T05:21:51.472Z,95.90
2017-09-14T05:24:17.843Z,95.80
2017-09-14T05:26:44.892Z,95.60
2017-09-14T05:29:12.037Z,95.30
2017-09-14T05:31:39.123Z,95.70
2017-09-14T05:34:05.435Z,95.70
2017-09-14T05:36:31.834Z,95.30
2017-09-14T05:38:58.856Z,95.10
2017-09-14T05:41:25.206Z,95.10
2017-09-14T05:43:51.516Z,95.00
2017-09-14T05:46:17.988Z,94.70
2017-09-14T05:48:45.062Z,95.30
2017-09-14T05:51:11.410Z,95.30
2017-09-14T05:53:37.713Z,95.10
2017-09-14T05:56:04.979Z,94.60
2017-09-14T05:58:31.520Z,94.60
2017-09-14T06:00:57.859Z,95.10
2017-09-14T06:03:24.150Z,94.70
2017-09-14T06:05:51.333Z,94.80
2017-09-14T06:08:17.696Z,94.80
2017-09-14T06:10:44.031Z,94.90
2017-09-14T06:13:10.410Z,94.60
2017-09-14T06:15:36.737Z,94.70
2017-09-14T06:18:03.068Z,94.90
2017-09-14T06:20:29.404Z,95.30
2017-09-14T06:22:55.736Z,95.20
2017-09-14T06:25:22.040Z,94.90
2017-09-14T06:27:49.140Z,94.80
2017-09-14T06:30:15.523Z,94.70
2017-09-14T06:32:42.637Z,94.60
2017-09-14T06:35:08.957Z,94.60
2017-09-14T06:37:35.255Z,95.00
2017-09-14T06:40:01.586Z,95.30
2017-09-14T06:42:27.916Z,95.10
2017-09-14T06:44:54.264Z,94.90
2017-09-14T06:47:20.603Z,94.50
2017-09-14T06:49:46.950Z,94.30
2017-09-14T06:52:13.242Z,94.70
2017-09-14T06:54:39.588Z,94.40
2017-09-14T06:57:05.852Z,94.20
2017-09-14T06:59:32.192Z,94.10
2017-09-14T07:01:58.691Z,93.70
2017-09-14T07:04:25.001Z,93.30
2017-09-14T07:06:51.365Z,93.90
2017-09-14T07:09:17.632Z,93.60
2017-09-14T07:11:44.737Z,93.80
2017-09-14T07:14:11.057Z,93.80
2017-09-14T07:16:37.394Z,93.90
2017-09-14T07:19:03.777Z,93.70
2017-09-14T07:21:30.820Z,93.90
2017-09-14T07:23:57.275Z,93.60
2017-09-14T07:26:23.550Z,93.10
2017-09-14T07:28:49.888Z,92.80
2017-09-14T07:31:16.941Z,93.00
2017-09-14T07:33:43.266Z,92.90
2017-09-14T07:36:09.892Z,93.00
2017-09-14T07:38:38.047Z,93.20
2017-09-14T07:41:04.495Z,93.10
2017-09-14T07:43:30.828Z,93.40
2017-09-14T07:45:57.201Z,93.40
2017-09-14T07:48:24.236Z,92.90
2017-09-14T07:50:51.287Z,93.50
2017-09-14T07:53:18.359Z,93.30
2017-09-14T07:55:44.700Z,93.30
2017-09-14T07:58:11.008Z,92.80
2017-09-14T08:00:38.092Z,92.90
2017-09-14T08:03:04.439Z,92.90
2017-09-14T08:05:30.745Z,92.70
2017-09-14T08:07:57.048Z,92.70
2017-09-14T08:10:23.429Z,93.10
2017-09-14T08:12:49.769Z,93.20
2017-09-14T08:15:16.080Z,93.00
2017-09-14T08:17:42.435Z,93.10
2017-09-14T08:20:08.731Z,93.70
2017-09-14T08:22:35.039Z,93.70
2017-09-14T08:25:01.338Z,93.30
2017-09-14T08:27:27.621Z,93.20
2017-09-14T08:29:54.013Z,93.30
2017-09-14T08:32:21.071Z,93.30
2017-09-14T08:34:47.412Z,93.30
2017-09-14T08:37:13.893Z,93.30
2017-09-14T08:39:40.259Z,93.40
2017-09-14T08:42:07.309Z,93.40
2017-09-14T08:44:33.632Z,93.40
2017-09-14T08:47:00.701Z,93.40
2017-09-14T08:49:27.044Z,93.40
2017-09-14T08:51:53.352Z,92.90
2017-09-14T08:54:19.651Z,93.00
2017-09-14T08:56:46.744Z,93.10
2017-09-14T08:59:13.093Z,92.80
2017-09-14T09:01:39.448Z,93.00
2017-09-14T09:04:06.513Z,92.80
2017-09-14T09:06:32.816Z,92.80
2017-09-14T09:08:59.118Z,93.30
2017-09-14T09:11:25.516Z,92.80
2017-09-14T09:13:52.641Z,92.50
2017-09-14T09:16:18.941Z,92.50
2017-09-14T09:18:45.283Z,92.30
2017-09-14T09:21:11.976Z,93.10
2017-09-14T09:23:38.996Z,91.90
2017-09-14T09:26:05.296Z,91.90
2017-09-14T09:28:31.658Z,91.70
2017-09-14T09:30:58.752Z,90.90
2017-09-14T09:33:25.051Z,90.90
2017-09-14T09:35:52.173Z,91.00
2017-09-14T09:38:18.502Z,91.00
2017-09-14T09:40:44.805Z,91.20
2017-09-14T09:43:11.108Z,91.40
2017-09-14T09:45:37.426Z,91.10
2017-09-14T09:48:04.512Z,92.00
2017-09-14T09:50:30.835Z,92.00
2017-09-14T09:52:57.165Z,92.00
2017-09-14T09:55:23.520Z,92.00
2017-09-14T09:57:49.978Z,92.10
2017-09-14T10:00:16.301Z,91.30
2017-09-14T10:02:42.627Z,91.30
2017-09-14T10:05:08.937Z,90.80
2017-09-14T10:07:35.249Z,90.80
2017-09-14T10:10:01.572Z,90.50
2017-09-14T10:12:28.157Z,90.90
2017-09-14T10:14:54.488Z,90.50
2017-09-14T10:17:21.704Z,89.60
2017-09-14T10:19:48.044Z,89.60
2017-09-14T10:22:14.322Z,87.50
2017-09-14T10:24:41.565Z,84.40
2017-09-14T10:27:08.625Z,82.90
2017-09-14T10:29:35.690Z,82.50
2017-09-14T10:32:02.726Z,80.90
2017-09-14T10:34:29.029Z,80.70
2017-09-14T10:36:56.076Z,78.90
2017-09-14T10:39:23.116Z,77.60
2017-09-14T10:41:49.434Z,77.40
2017-09-14T10:44:15.713Z,76.20
2017-09-14T10:46:42.166Z,74.50
2017-09-14T10:49:08.476Z,74.70
2017-09-14T10:51:34.856Z,73.20
2017-09-14T10:54:01.209Z,70.30
2017-09-14T10:56:27.600Z,63.60
2017-09-14T10:58:53.943Z,63.20
2017-09-14T11:01:20.284Z,60.70
2017-09-14T11:03:46.604Z,58.80
2017-09-14T11:06:12.880Z,58.10
2017-09-14T11:08:39.292Z,59.30
2017-09-14T11:11:05.588Z,59.50
2017-09-14T11:13:31.937Z,60.30
2017-09-14T11:15:58.399Z,60.60
2017-09-14T11:18:25.518Z,61.30
2017-09-14T11:20:51.859Z,61.30
2017-09-14T11:23:18.196Z,63.90
2017-09-14T11:25:44.532Z,65.70
2017-09-14T11:28:11.608Z,65.80
2017-09-14T11:30:37.969Z,65.80
2017-09-14T11:33:04.312Z,66.30
2017-09-14T11:35:30.668Z,68.50
2017-09-14T11:37:56.977Z,69.40
2017-09-14T11:40:23.319Z,70.20
2017-09-14T11:42:49.600Z,71.50
2017-09-14T11:45:15.916Z,69.00
2017-09-14T11:47:42.226Z,67.80
2017-09-14T11:50:09.299Z,69.90
2017-09-14T11:52:35.646Z,69.90
2017-09-14T11:55:02.136Z,69.70
2017-09-14T11:57:29.201Z,73.70
2017-09-14T11:59:55.617Z,73.70
2017-09-14T12:02:22.668Z,76.20
2017-09-14T12:04:49.008Z,76.20
2017-09-14T12:07:15.364Z,74.60
2017-09-14T12:09:41.672Z,75.70
2017-09-14T12:12:08.559Z,75.30
2017-09-14T12:14:34.852Z,74.50
2017-09-14T12:17:01.147Z,73.70
2017-09-14T12:19:28.201Z,71.80
2017-09-14T12:21:54.508Z,71.80
2017-09-14T12:24:20.860Z,71.80
2017-09-14T12:26:47.139Z,72.40
2017-09-14T12:29:13.448Z,74.50
2017-09-14T12:31:39.768Z,73.20
2017-09-14T12:34:06.824Z,72.60
2017-09-14T12:36:33.156Z,72.50
2017-09-14T12:38:59.452Z,73.20
2017-09-14T12:41:25.777Z,73.70
2017-09-14T12:43:52.110Z,72.50
2017-09-14T12:46:19.183Z,69.30
2017-09-14T12:48:46.243Z,68.10
2017-09-14T12:51:12.562Z,68.10
2017-09-14T12:53:38.872Z,67.90
2017-09-14T12:56:05.980Z,69.10
2017-09-14T12:58:32.296Z,69.50
2017-09-14T13:00:58.643Z,69.30
2017-09-14T13:03:24.960Z,68.60
2017-09-14T13:05:51.348Z,67.30
2017-09-14T13:08:18.400Z,66.30
2017-09-14T13:10:45.424Z,66.60
2017-09-14T13:13:13.212Z,65.10
2017-09-14T13:15:40.312Z,65.40
2017-09-14T13:18:06.644Z,65.40
2017-09-14T13:20:33.017Z,65.20
2017-09-14T13:23:00.274Z,63.20
2017-09-14T13:25:27.424Z,63.70
2017-09-14T13:27:54.471Z,64.90
2017-09-14T13:30:21.541Z,63.90
2017-09-14T13:32:47.836Z,63.90
2017-09-14T13:35:14.924Z,64.20
2017-09-14T13:37:41.305Z,64.20
2017-09-14T13:40:07.594Z,63.70
2017-09-14T13:42:33.948Z,63.60
2017-09-14T13:45:00.291Z,63.40
2017-09-14T13:47:28.158Z,62.20
2017-09-14T13:49:54.807Z,62.20
2017-09-14T13:52:21.123Z,62.00
2017-09-14T13:54:47.463Z,62.30
2017-09-14T13:57:13.755Z,63.80
2017-09-14T13:59:40.091Z,61.60
2017-09-14T14:02:06.426Z,61.90
2017-09-14T14:04:32.744Z,62.60
2017-09-14T14:06:59.093Z,63.00
2017-09-14T14:09:25.468Z,63.60
2017-09-14T14:11:51.796Z,64.60
2017-09-14T14:14:18.917Z,64.60
2017-09-14T14:16:45.260Z,64.60
2017-09-14T14:19:12.344Z,65.70
2017-09-14T14:21:38.643Z,65.70
2017-09-14T14:24:05.720Z,65.20
2017-09-14T14:26:32.070Z,65.20
2017-09-14T14:28:58.619Z,66.80
2017-09-14T14:31:24.996Z,66.90
2017-09-14T14:33:52.056Z,70.30
2017-09-14T14:36:19.109Z,70.70
2017-09-14T14:38:45.407Z,70.70
2017-09-14T14:41:11.716Z,70.80
2017-09-14T14:43:38.073Z,70.40
2017-09-14T14:46:05.157Z,70.40
2017-09-14T14:48:31.560Z,70.30
2017-09-14T14:50:58.601Z,68.40
2017-09-14T14:53:25.694Z,69.80
2017-09-14T14:55:52.142Z,69.10
2017-09-14T14:58:18.416Z,68.80
2017-09-14T15:00:45.513Z,68.20
2017-09-14T15:03:12.033Z,68.20
2017-09-14T15:05:38.391Z,68.90
2017-09-14T15:08:04.700Z,68.00
2017-09-14T15:10:31.032Z,67.40
2017-09-14T15:12:57.477Z,68.20
2017-09-14T15:15:23.849Z,67.40
2017-09-14T15:17:50.176Z,67.50
2017-09-14T15:20:16.552Z,67.20
2017-09-14T15:22:43.067Z,65.30
2017-09-14T15:25:09.453Z,64.70
2017-09-14T15:27:36.156Z,64.00
2017-09-14T15:30:02.674Z,62.40
2017-09-14T15:32:29.153Z,64.10
2017-09-14T15:34:55.547Z,64.10
2017-09-14T15:37:21.992Z,62.50
2017-09-14T15:39:54.440Z,62.50
2017-09-14T15:42:27.641Z,63.50
2017-09-14T15:45:01.021Z,62.90
2017-09-14T15:47:28.218Z,63.10
2017-09-14T15:50:00.649Z,63.10
2017-09-14T15:52:27.987Z,60.30
2017-09-14T15:54:55.106Z,60.10
2017-09-14T15:57:21.584Z,60.10
2017-09-14T15:59:48.661Z,61.20
2017-09-14T16:02:15.029Z,61.20
2017-09-14T16:04:42.973Z,61.10
2017-09-14T16:07:09.876Z,60.60
2017-09-14T16:09:36.380Z,59.90
2017-09-14T16:12:02.804Z,61.40
2017-09-14T16:14:29.172Z,60.40
2017-09-14T16:16:56.484Z,59.70
2017-09-14T16:19:22.914Z,59.60
2017-09-14T16:21:49.316Z,60.00
2017-09-14T16:24:15.686Z,60.70
2017-09-14T16:26:44.462Z,60.70
2017-09-14T16:29:11.023Z,59.60
2017-09-14T16:31:37.636Z,59.50
2017-09-14T16:34:04.099Z,59.70
2017-09-14T16:36:31.476Z,59.80
2017-09-14T16:38:58.622Z,59.40
2017-09-14T16:41:25.791Z,58.50
2017-09-14T16:43:52.315Z,58.50
2017-09-14T16:46:18.706Z,58.90
2017-09-14T16:48:45.099Z,59.70
2017-09-14T16:51:11.423Z,60.10
2017-09-14T16:53:37.786Z,61.70
2017-09-14T16:56:04.141Z,64.10
2017-09-14T16:58:30.507Z,66.50
2017-09-14T17:00:56.935Z,69.10
2017-09-14T17:03:23.273Z,71.00
2017-09-14T17:05:49.637Z,72.50
2017-09-14T17:08:16.077Z,73.60
2017-09-14T17:10:42.408Z,75.20
2017-09-14T17:13:08.715Z,75.20
2017-09-14T17:15:35.113Z,75.80
2017-09-14T17:18:02.192Z,76.20
2017-09-14T17:20:28.528Z,76.20
2017-09-14T17:22:54.865Z,77.80
2017-09-14T17:25:21.177Z,77.90
2017-09-14T17:27:51.132Z,77.20
2017-09-14T17:30:18.065Z,77.10
2017-09-14T17:32:44.408Z,78.90
2017-09-14T17:35:10.721Z,80.30
2017-09-14T17:37:37.038Z,81.40
2017-09-14T17:40:03.468Z,80.50
2017-09-14T17:42:29.900Z,81.70
2017-09-14T17:44:56.266Z,81.90
2017-09-14T17:47:22.576Z,81.30
2017-09-14T17:49:48.896Z,82.40
2017-09-14T17:52:15.240Z,83.80
2017-09-14T17:54:41.513Z,84.50
2017-09-14T17:57:08.614Z,85.00
2017-09-14T17:59:34.915Z,84.90
2017-09-14T18:02:01.264Z,85.20
2017-09-14T18:04:27.636Z,84.40
2017-09-14T18:06:54.028Z,84.90
2017-09-14T18:09:20.434Z,85.40
2017-09-14T18:11:47.537Z,85.00
2017-09-14T18:14:13.892Z,85.00
2017-09-14T18:16:40.229Z,85.30
2017-09-14T18:19:07.307Z,85.20
2017-09-14T18:21:33.640Z,85.20
2017-09-14T18:24:00.176Z,85.60
2017-09-14T18:26:26.566Z,84.50
2017-09-14T18:28:53.673Z,85.10
2017-09-14T18:31:20.063Z,85.00
2017-09-14T18:33:47.110Z,84.30
2017-09-14T18:36:14.233Z,85.20
2017-09-14T18:38:40.551Z,85.20
2017-09-14T18:41:06.925Z,84.80
2017-09-14T18:43:33.880Z,85.40
2017-09-14T18:46:00.241Z,85.90
2017-09-14T18:48:26.583Z,86.40
2017-09-14T18:50:52.898Z,86.60
2017-09-14T18:53:19.286Z,87.20
2017-09-14T18:55:46.344Z,87.20
2017-09-14T18:58:13.508Z,86.70
2017-09-14T19:00:39.906Z,86.70
2017-09-14T19:03:06.990Z,87.40
2017-09-14T19:05:33.284Z,87.40
2017-09-14T19:08:00.586Z,88.00
2017-09-14T19:10:26.913Z,88.00
2017-09-14T19:12:56.322Z,88.60
2017-09-14T19:15:22.629Z,88.40
2017-09-14T19:17:48.928Z,87.90
2017-09-14T19:20:15.287Z,88.20
2017-09-14T19:22:41.688Z,88.30
2017-09-14T19:25:08.728Z,88.00
2017-09-14T19:27:35.084Z,88.00
2017-09-14T19:30:02.135Z,87.90
2017-09-14T19:32:28.546Z,87.80
2017-09-14T19:34:54.878Z,88.40
2017-09-14T19:37:21.202Z,88.40
2017-09-14T19:39:47.608Z,88.30
2017-09-14T19:42:14.020Z,87.10
2017-09-14T19:44:40.544Z,87.70
2017-09-14T19:47:06.865Z,87.90
2017-09-14T19:49:33.234Z,88.10
2017-09-14T19:51:59.596Z,88.10
2017-09-14T19:54:25.961Z,88.10
2017-09-14T19:56:52.313Z,88.10
2017-09-14T19:59:18.681Z,88.10
2017-09-14T20:01:45.073Z,88.50
2017-09-14T20:04:11.425Z,88.30
2017-09-14T20:06:37.884Z,88.40
2017-09-14T20:09:04.378Z,88.30
2017-09-14T20:11:30.760Z,88.00
2017-09-14T20:14:05.073Z,88.70
2017-09-14T20:16:31.424Z,88.70
2017-09-14T20:18:58.520Z,88.50
2017-09-14T20:21:24.999Z,88.40
2017-09-14T20:23:51.334Z,88.80
2017-09-14T20:26:18.424Z,90.30
2017-09-14T20:28:44.782Z,90.30
2017-09-14T20:31:11.144Z,90.50
2017-09-14T20:33:38.251Z,90.70
2017-09-14T20:36:04.560Z,90.70
2017-09-14T20:38:30.917Z,91.10
2017-09-14T20:40:57.292Z,91.70
2017-09-14T20:43:23.631Z,91.40
2017-09-14T20:45:49.928Z,91.50
2017-09-14T20:48:17.096Z,92.20
2017-09-14T20:50:44.272Z,92.50
2017-09-14T20:53:10.624Z,92.50
2017-09-14T20:55:36.938Z,92.80
2017-09-14T20:58:03.224Z,93.10
2017-09-14T21:00:30.336Z,93.40
2017-09-14T21:02:56.674Z,93.40
2017-09-14T21:05:23.023Z,93.60
2017-09-14T21:07:49.367Z,93.40
2017-09-14T21:10:16.666Z,93.40
2017-09-14T21:12:42.936Z,93.40
2017-09-14T21:15:10.716Z,93.30
2017-09-14T21:17:37.829Z,93.50
2017-09-14T21:20:04.345Z,93.40
2017-09-14T21:22:30.703Z,93.50
2017-09-14T21:24:57.037Z,93.50
2017-09-14T21:27:23.626Z,93.50
2017-09-14T21:29:49.972Z,93.40
2017-09-14T21:32:16.321Z,93.50
2017-09-14T21:34:42.594Z,93.50
2017-09-14T21:37:09.688Z,93.50
2017-09-14T21:39:35.961Z,93.10
2017-09-14T21:42:03.008Z,92.60
2017-09-14T21:44:30.199Z,92.10
2017-09-14T21:47:03.489Z,92.10
2017-09-14T21:49:29.858Z,92.00
2017-09-14T21:51:56.258Z,92.10
2017-09-14T21:54:22.550Z,92.30
2017-09-14T21:56:49.580Z,92.60
2017-09-14T21:59:15.904Z,92.60
2017-09-14T22:01:42.352Z,93.10
2017-09-14T22:04:09.396Z,93.80
2017-09-14T22:06:36.481Z,93.70
2017-09-14T22:09:02.825Z,93.70
2017-09-14T22:11:29.419Z,93.80
2017-09-14T22:13:56.457Z,94.80
2017-09-14T22:16:22.764Z,94.80
2017-09-14T22:18:49.065Z,94.30
2017-09-14T22:21:15.373Z,94.60
2017-09-14T22:23:41.671Z,94.90
2017-09-14T22:26:08.024Z,95.10
2017-09-14T22:28:35.086Z,94.90
2017-09-14T22:31:01.425Z,94.80
2017-09-14T22:33:27.758Z,94.90
2017-09-14T22:35:54.108Z,94.80
2017-09-14T22:38:20.457Z,95.00
2017-09-14T22:40:46.771Z,95.50
2017-09-14T22:43:13.080Z,96.00
2017-09-14T22:45:39.390Z,96.40
2017-09-14T22:48:05.664Z,96.60
2017-09-14T22:50:32.268Z,96.70
2017-09-14T22:52:58.552Z,96.80
2017-09-14T22:55:24.905Z,96.70
2017-09-14T22:57:51.965Z,95.60
2017-09-14T23:00:19.020Z,95.40
2017-09-14T23:02:45.407Z,95.40
2017-09-14T23:05:11.739Z,95.10
2017-09-14T23:07:38.096Z,94.60
2017-09-14T23:10:05.132Z,94.20
2017-09-14T23:12:32.187Z,93.50
2017-09-14T23:14:59.324Z,93.70
2017-09-14T23:17:25.807Z,93.70
2017-09-14T23:19:52.132Z,94.10
2017-09-14T23:22:18.449Z,94.30
2017-09-14T23:24:44.735Z,94.80
2017-09-14T23:27:11.009Z,95.40
2017-09-14T23:29:37.325Z,95.50
2017-09-14T23:32:04.354Z,95.70
2017-09-14T23:34:30.828Z,95.60
2017-09-14T23:36:57.129Z,95.80
2017-09-14T23:39:24.200Z,96.00
2017-09-14T23:41:50.489Z,96.00
2017-09-14T23:44:17.535Z,95.20
2017-09-14T23:46:43.866Z,95.10
2017-09-14T23:49:10.904Z,94.70
2017-09-14T23:51:44.283Z,94.70
2017-09-14T23:54:10.560Z,95.00
2017-09-14T23:56:37.640Z,95.40
2017-09-14T23:59:03.987Z,95.40
